KNBG/NBG METAR and TAF weather

Enter ICAO airport designator
Station Type Date Time Source
KNBG METAR 2021/09/25 00:55 UTC NOAA

KNBG 250055Z 15003KT 10SM FEW250 21/16 A3005 RMK AO2 SLP173 T02110161 $


Station Type Date Time Source
KNBG Decoded METAR 2021/09/25 00:55 UTC NOAA

NEW ORLEANS NAVAL AIR STN, LA, United States (KNBG) 29-50N 90-01W
Sep 24, 2021 - 08:55 PM EDT / 2021.09.25 0055 UTC
Wind: from the SSE (150 degrees) at 3 MPH (3 KT):0
Visibility: 10 mile(s):0
Sky conditions: mostly clear
Temperature: 70.0 F (21.1 C)
Dew Point: 61.0 F (16.1 C)
Relative Humidity: 73%
Pressure (altimeter): 30.05 in. Hg (1017 hPa)
ob: KNBG 250055Z 15003KT 10SM FEW250 21/16 A3005 RMK AO2 SLP173 T02110161
cycle: 1

Station Type Date Time Source
KNBG TAF 2021/09/25 07:59 UTC NOAA

TAF KNBG 2507/2607 VRB05KT 9999 FEW040 SCT250 QNH3004INS
FM251500 02007KT 9999 SCT250 QNH3008INS
BECMG 2521/2523 VRB05KT 9999 FEW270 QNH3002 AUTOMATED SENSOR METWATCH 2507 TIL 2512 T16/2512Z T26/2521Z FN00243

Example: see airport list